createdAt,value
2023-03-13T00:00:18.634Z,0.80
2023-03-13T00:02:48.104Z,0.80
2023-03-13T00:05:17.536Z,0.80
2023-03-13T00:07:46.997Z,0.70
2023-03-13T00:10:16.421Z,0.70
2023-03-13T00:12:45.849Z,0.80
2023-03-13T00:15:21.278Z,0.60
2023-03-13T00:17:50.702Z,0.80
2023-03-13T00:20:20.125Z,0.80
2023-03-13T00:22:49.528Z,0.50
2023-03-13T00:25:18.951Z,0.90
2023-03-13T00:27:49.335Z,0.70
2023-03-13T00:30:18.972Z,0.87
2023-03-13T00:32:49.038Z,0.40
2023-03-13T00:35:18.638Z,0.47
2023-03-13T00:37:48.042Z,0.70
2023-03-13T00:40:17.900Z,0.63
2023-03-13T00:42:47.322Z,0.70
2023-03-13T00:45:16.730Z,0.97
2023-03-13T00:47:46.155Z,0.70
2023-03-13T00:50:15.621Z,0.77
2023-03-13T00:52:45.039Z,0.73
2023-03-13T00:55:14.458Z,0.97
2023-03-13T00:57:43.888Z,0.73
2023-03-13T01:00:15.777Z,0.80
2023-03-13T01:02:45.967Z,0.60
2023-03-13T01:05:15.493Z,1.00
2023-03-13T01:07:44.937Z,0.90
2023-03-13T01:10:14.353Z,0.70
2023-03-13T01:12:43.777Z,0.60
2023-03-13T01:15:13.440Z,0.60
2023-03-13T01:17:45.043Z,0.90
2023-03-13T01:20:15.165Z,0.80
2023-03-13T01:22:44.663Z,1.07
2023-03-13T01:25:14.083Z,0.77
2023-03-13T01:27:43.522Z,0.77
2023-03-13T01:30:13.534Z,0.73
2023-03-13T01:32:43.000Z,0.70
2023-03-13T01:35:12.989Z,0.93
2023-03-13T01:37:42.800Z,0.60
2023-03-13T01:40:13.384Z,0.90
2023-03-13T01:42:55.959Z,1.10
2023-03-13T01:45:59.008Z,1.00
2023-03-13T01:48:38.687Z,1.50
2023-03-13T01:51:15.221Z,1.40
2023-03-13T01:53:49.488Z,1.30
2023-03-13T01:56:32.085Z,1.30
2023-03-13T01:59:03.321Z,1.30
2023-03-13T02:01:34.205Z,1.20
2023-03-13T02:04:04.782Z,1.10
2023-03-13T02:06:38.252Z,0.90
2023-03-13T02:09:12.291Z,1.00
2023-03-13T02:11:54.979Z,1.10
2023-03-13T02:14:29.004Z,0.70
2023-03-13T02:16:58.567Z,0.80
2023-03-13T02:19:47.058Z,1.00
2023-03-13T02:22:38.740Z,0.70
2023-03-13T02:25:51.325Z,0.87
2023-03-13T02:28:28.330Z,0.90
2023-03-13T02:30:58.767Z,1.13
2023-03-13T02:33:36.246Z,1.03
2023-03-13T02:36:07.887Z,0.83
2023-03-13T02:38:44.446Z,0.87
2023-03-13T02:41:16.007Z,1.33
2023-03-13T02:43:45.431Z,1.00
2023-03-13T02:46:19.197Z,1.10
2023-03-13T02:48:52.087Z,0.90
2023-03-13T02:51:41.707Z,1.00
2023-03-13T02:54:16.050Z,0.73
2023-03-13T02:56:49.228Z,0.97
2023-03-13T02:59:19.083Z,0.80
2023-03-13T03:01:50.284Z,0.97
2023-03-13T03:04:24.669Z,1.20
2023-03-13T03:06:54.801Z,1.20
2023-03-13T03:09:26.233Z,0.90
2023-03-13T03:11:55.652Z,1.00
2023-03-13T03:14:25.091Z,0.90
2023-03-13T03:16:54.505Z,0.70
2023-03-13T03:19:23.931Z,0.90
2023-03-13T03:21:53.380Z,0.97
2023-03-13T03:24:22.800Z,0.70
2023-03-13T03:26:52.232Z,0.80
2023-03-13T03:29:21.646Z,0.93
2023-03-13T03:31:51.086Z,1.07
2023-03-13T03:34:20.831Z,0.80
2023-03-13T03:36:50.381Z,0.67
2023-03-13T03:39:19.789Z,1.00
2023-03-13T03:41:49.203Z,1.47
2023-03-13T03:44:18.654Z,1.50
2023-03-13T03:46:48.085Z,0.80
2023-03-13T03:49:17.566Z,1.00
2023-03-13T03:51:46.989Z,1.00
2023-03-13T03:54:16.506Z,0.80
2023-03-13T03:56:45.906Z,0.90
2023-03-13T03:59:15.331Z,1.00
2023-03-13T04:01:44.863Z,1.00
2023-03-13T04:04:14.271Z,1.20
2023-03-13T04:06:43.673Z,1.57
2023-03-13T04:09:13.611Z,1.30
2023-03-13T04:11:43.025Z,1.27
2023-03-13T04:14:12.448Z,0.80
2023-03-13T04:16:41.930Z,0.73
2023-03-13T04:19:11.434Z,0.90
2023-03-13T04:21:40.842Z,1.23
2023-03-13T04:24:10.407Z,1.10
2023-03-13T04:26:39.813Z,1.27
2023-03-13T04:29:09.243Z,0.87
2023-03-13T04:31:38.657Z,0.77
2023-03-13T04:34:08.083Z,0.93
2023-03-13T04:36:37.497Z,1.10
2023-03-13T04:39:06.920Z,1.23
2023-03-13T04:41:36.356Z,0.80
2023-03-13T04:44:06.349Z,1.10
2023-03-13T04:46:35.885Z,1.40
2023-03-13T04:49:07.681Z,1.47
2023-03-13T04:51:36.487Z,0.83
2023-03-13T04:54:05.914Z,0.97
2023-03-13T04:56:43.172Z,1.00
2023-03-13T04:59:06.779Z,0.80
2023-03-13T05:01:36.246Z,0.53
2023-03-13T05:04:07.068Z,1.10
2023-03-13T05:06:36.467Z,1.00
2023-03-13T05:09:07.409Z,1.40
2023-03-13T05:11:36.808Z,1.30
2023-03-13T05:14:06.258Z,1.40
2023-03-13T05:16:35.732Z,1.10
2023-03-13T05:19:05.163Z,0.90
2023-03-13T05:21:34.587Z,1.70
2023-03-13T05:24:04.008Z,0.87
2023-03-13T05:26:33.432Z,0.83
2023-03-13T05:29:02.870Z,0.93
2023-03-13T05:31:32.438Z,0.60
2023-03-13T05:34:01.901Z,0.50
2023-03-13T05:36:31.337Z,1.00
2023-03-13T05:39:00.845Z,0.90
2023-03-13T05:41:30.261Z,1.30
2023-03-13T05:43:59.706Z,0.80
2023-03-13T05:46:31.046Z,0.70
2023-03-13T05:49:00.540Z,0.57
2023-03-13T05:51:29.967Z,1.03
2023-03-13T05:53:59.637Z,0.67
2023-03-13T05:56:29.080Z,1.07
2023-03-13T05:58:58.495Z,1.30
2023-03-13T06:01:27.942Z,0.70
2023-03-13T06:03:57.606Z,1.00
2023-03-13T06:06:27.143Z,0.83
2023-03-13T06:08:56.656Z,1.03
2023-03-13T06:11:26.108Z,1.10
2023-03-13T06:13:55.943Z,1.17
2023-03-13T06:16:25.469Z,0.83
2023-03-13T06:18:55.052Z,0.90
2023-03-13T06:21:24.480Z,1.17
2023-03-13T06:23:55.060Z,1.20
2023-03-13T06:26:25.694Z,1.53
2023-03-13T06:28:55.154Z,1.57
2023-03-13T06:31:24.747Z,1.47
2023-03-13T06:33:58.195Z,1.13
2023-03-13T06:36:28.205Z,1.20
2023-03-13T06:38:57.720Z,2.00
2023-03-13T06:41:27.897Z,1.40
2023-03-13T06:43:57.364Z,1.20
2023-03-13T06:46:27.217Z,0.93
2023-03-13T06:48:56.830Z,0.83
2023-03-13T06:51:26.616Z,1.00
2023-03-13T06:53:56.014Z,1.10
2023-03-13T06:56:25.708Z,0.70
2023-03-13T06:58:55.187Z,1.07
2023-03-13T07:01:24.813Z,1.20
2023-03-13T07:03:54.375Z,1.10
2023-03-13T07:06:23.787Z,0.90
2023-03-13T07:08:53.211Z,1.20
2023-03-13T07:11:22.710Z,1.90
2023-03-13T07:13:56.510Z,1.70
2023-03-13T07:16:24.998Z,1.40
2023-03-13T07:18:54.416Z,1.03
2023-03-13T07:21:23.857Z,1.00
2023-03-13T07:23:53.325Z,1.00
2023-03-13T07:26:22.810Z,1.00
2023-03-13T07:28:52.377Z,1.40
2023-03-13T07:31:24.839Z,1.70
2023-03-13T07:33:57.492Z,1.30
2023-03-13T07:36:27.367Z,1.53
2023-03-13T07:38:56.833Z,1.27
2023-03-13T07:41:26.254Z,1.30
2023-03-13T07:43:55.667Z,1.90
2023-03-13T07:46:25.256Z,1.50
2023-03-13T07:48:55.602Z,1.20
2023-03-13T07:51:42.565Z,0.93
2023-03-13T07:53:59.374Z,0.80
2023-03-13T07:56:28.871Z,1.20
2023-03-13T07:58:58.358Z,1.57
2023-03-13T08:01:30.849Z,1.30
2023-03-13T08:04:02.594Z,1.37
2023-03-13T08:06:39.777Z,1.70
2023-03-13T08:09:09.896Z,1.27
2023-03-13T08:11:42.373Z,1.30
2023-03-13T08:14:12.225Z,0.93
2023-03-13T08:16:42.471Z,1.50
2023-03-13T08:19:12.356Z,1.20
2023-03-13T08:21:41.778Z,1.63
2023-03-13T08:24:13.047Z,1.20
2023-03-13T08:26:43.727Z,1.33
2023-03-13T08:29:16.047Z,1.30
2023-03-13T08:31:53.047Z,0.90
2023-03-13T08:34:22.445Z,1.27
2023-03-13T08:36:52.895Z,1.13
2023-03-13T08:39:23.089Z,1.00
2023-03-13T08:41:52.583Z,1.13
2023-03-13T08:44:22.097Z,1.10
2023-03-13T08:46:52.460Z,1.10
2023-03-13T08:49:21.902Z,0.90
2023-03-13T08:51:51.378Z,0.90
2023-03-13T08:54:20.793Z,1.00
2023-03-13T08:56:50.218Z,1.00
2023-03-13T08:59:19.707Z,1.17
2023-03-13T09:01:49.131Z,1.13
2023-03-13T09:04:19.394Z,0.97
2023-03-13T09:06:48.821Z,1.10
2023-03-13T09:09:18.235Z,1.10
2023-03-13T09:11:47.670Z,1.30
2023-03-13T09:14:17.295Z,1.20
2023-03-13T09:16:48.178Z,1.23
2023-03-13T09:19:18.031Z,1.10
2023-03-13T09:21:49.340Z,1.10
2023-03-13T09:24:20.101Z,0.93
2023-03-13T09:27:00.666Z,0.60
2023-03-13T09:29:20.660Z,0.80
2023-03-13T09:31:50.247Z,1.20
2023-03-13T09:34:19.686Z,1.00
2023-03-13T09:36:49.132Z,0.80
2023-03-13T09:39:18.558Z,1.00
2023-03-13T09:42:07.923Z,0.77
2023-03-13T09:45:00.916Z,1.07
2023-03-13T09:47:49.161Z,1.20
2023-03-13T09:50:28.572Z,0.70
2023-03-13T09:53:08.612Z,1.20
2023-03-13T09:55:41.413Z,1.00
2023-03-13T09:58:21.474Z,1.30
2023-03-13T10:01:06.125Z,0.83
2023-03-13T10:03:45.897Z,0.50
2023-03-13T10:06:24.733Z,1.10
2023-03-13T10:08:54.218Z,0.70
2023-03-13T10:11:46.132Z,1.17
2023-03-13T10:14:23.036Z,1.00
2023-03-13T10:17:21.189Z,0.73
2023-03-13T10:20:00.935Z,0.70
2023-03-13T10:22:33.248Z,0.47
2023-03-13T10:25:28.255Z,0.57
2023-03-13T10:27:58.442Z,0.93
2023-03-13T10:30:32.427Z,1.20
2023-03-13T10:33:15.264Z,1.00
2023-03-13T10:35:46.836Z,1.00
2023-03-13T10:38:25.579Z,0.90
2023-03-13T10:41:04.996Z,0.90
2023-03-13T10:43:34.429Z,0.90
2023-03-13T10:46:04.046Z,0.60
2023-03-13T10:48:38.118Z,0.63
2023-03-13T10:51:12.208Z,0.80
2023-03-13T10:53:43.041Z,0.40
2023-03-13T10:56:17.683Z,0.57
2023-03-13T10:58:51.150Z,0.70
2023-03-13T11:01:32.053Z,0.60
2023-03-13T11:04:04.771Z,0.70
2023-03-13T11:06:36.621Z,0.50
2023-03-13T11:09:21.526Z,0.50
2023-03-13T11:11:55.322Z,0.60
2023-03-13T11:14:27.389Z,0.47
2023-03-13T11:17:18.140Z,0.70
2023-03-13T11:19:57.909Z,0.60
2023-03-13T11:23:10.716Z,0.60
2023-03-13T11:25:53.761Z,0.60
2023-03-13T11:28:27.839Z,0.50
2023-03-13T11:31:07.617Z,0.50
2023-03-13T11:34:08.619Z,0.70
2023-03-13T11:36:51.356Z,0.57
2023-03-13T11:39:34.606Z,0.40
2023-03-13T11:42:40.461Z,0.40
2023-03-13T11:45:23.338Z,0.80
2023-03-13T11:48:26.859Z,0.80
2023-03-13T11:51:22.311Z,0.67
2023-03-13T11:54:20.490Z,0.30
2023-03-13T11:57:02.368Z,0.60
2023-03-13T11:59:53.787Z,0.50
2023-03-13T12:02:36.534Z,0.40
2023-03-13T12:05:13.321Z,0.50
2023-03-13T12:08:07.565Z,0.40
2023-03-13T12:10:47.172Z,0.40
2023-03-13T12:13:37.666Z,0.40
2023-03-13T12:16:17.757Z,0.30
2023-03-13T12:18:50.131Z,0.40
2023-03-13T12:21:41.683Z,0.60
2023-03-13T12:24:43.214Z,0.40
2023-03-13T12:27:23.078Z,0.73
2023-03-13T12:30:11.981Z,0.40
2023-03-13T12:32:49.094Z,0.50
2023-03-13T12:35:32.976Z,0.57
2023-03-13T12:38:15.204Z,0.43
2023-03-13T12:41:12.774Z,0.60
2023-03-13T12:43:57.182Z,0.40
2023-03-13T12:47:08.345Z,0.80
2023-03-13T12:49:47.959Z,0.90
2023-03-13T12:52:57.670Z,0.77
2023-03-13T12:56:00.400Z,0.63
2023-03-13T12:58:55.629Z,0.60
2023-03-13T13:01:44.590Z,0.53
2023-03-13T13:04:18.807Z,0.50
2023-03-13T13:07:10.605Z,0.60
2023-03-13T13:09:44.628Z,0.50
2023-03-13T13:12:26.160Z,0.50
2023-03-13T13:15:00.250Z,0.50
2023-03-13T13:18:16.653Z,0.50
2023-03-13T13:20:52.983Z,0.60
2023-03-13T13:23:31.054Z,0.70
2023-03-13T13:26:28.897Z,0.50
2023-03-13T13:29:01.646Z,0.40
2023-03-13T13:31:58.439Z,0.60
2023-03-13T13:34:35.462Z,0.50
2023-03-13T13:37:14.591Z,0.30
2023-03-13T13:39:53.340Z,0.57
2023-03-13T13:42:40.254Z,0.33
2023-03-13T13:45:25.377Z,0.63
2023-03-13T13:48:28.379Z,0.60
2023-03-13T13:51:14.718Z,0.50
2023-03-13T13:53:54.608Z,0.30
2023-03-13T13:56:51.223Z,0.40
2023-03-13T13:59:28.441Z,0.50
2023-03-13T14:02:16.879Z,0.33
2023-03-13T14:05:05.812Z,0.50
2023-03-13T14:08:00.625Z,0.40
2023-03-13T14:10:46.882Z,0.50
2023-03-13T14:13:22.535Z,0.60
2023-03-13T14:15:54.403Z,0.30
2023-03-13T14:18:30.066Z,0.40
2023-03-13T14:21:07.655Z,0.40
2023-03-13T14:23:43.523Z,0.60
2023-03-13T14:26:20.835Z,0.57
2023-03-13T14:29:01.095Z,0.50
2023-03-13T14:31:39.680Z,0.40
2023-03-13T14:34:15.232Z,0.47
2023-03-13T14:37:16.741Z,0.50
2023-03-13T14:39:48.681Z,0.47
2023-03-13T14:42:19.814Z,0.47
2023-03-13T14:44:50.659Z,0.50
2023-03-13T14:47:31.261Z,0.57
2023-03-13T14:50:08.264Z,0.30
2023-03-13T14:52:39.923Z,0.50
2023-03-13T14:55:25.924Z,0.40
2023-03-13T14:58:05.587Z,0.50
2023-03-13T15:00:44.828Z,0.30
2023-03-13T15:03:25.614Z,0.37
2023-03-13T15:06:14.445Z,0.40
2023-03-13T15:09:10.179Z,0.40
2023-03-13T15:11:46.240Z,0.60
2023-03-13T15:14:41.392Z,0.40
2023-03-13T15:17:23.969Z,0.60
2023-03-13T15:19:59.006Z,0.40
2023-03-13T15:22:35.550Z,0.70
2023-03-13T15:25:08.287Z,0.73
2023-03-13T15:27:38.079Z,0.50
2023-03-13T15:30:08.490Z,0.30
2023-03-13T15:32:43.650Z,0.47
2023-03-13T15:35:32.405Z,0.27
2023-03-13T15:38:03.743Z,0.50
2023-03-13T15:40:33.289Z,0.30
2023-03-13T15:43:02.743Z,0.40
2023-03-13T15:45:32.854Z,0.40
2023-03-13T15:48:03.047Z,0.43
2023-03-13T15:50:32.529Z,0.40
2023-03-13T15:53:01.979Z,0.50
2023-03-13T15:55:31.861Z,0.20
2023-03-13T15:58:01.284Z,0.30
2023-03-13T16:03:00.468Z,0.30
2023-03-13T16:05:51.038Z,0.20
2023-03-13T16:08:35.133Z,0.40
2023-03-13T16:10:58.366Z,0.50
2023-03-13T16:16:03.049Z,0.30
2023-03-13T16:18:32.457Z,0.30
2023-03-13T16:21:01.878Z,0.30
2023-03-13T16:23:31.876Z,0.40
2023-03-13T16:26:01.305Z,0.40
2023-03-13T16:28:30.737Z,0.50
2023-03-13T16:31:00.236Z,0.30
2023-03-13T16:33:29.719Z,0.47
2023-03-13T16:35:59.161Z,0.40
2023-03-13T16:38:28.582Z,0.33
2023-03-13T16:40:57.996Z,0.33
2023-03-13T16:43:27.455Z,0.40
2023-03-13T16:45:57.022Z,0.40
2023-03-13T16:48:45.862Z,0.40
2023-03-13T16:51:25.294Z,0.40
2023-03-13T16:53:59.270Z,0.40
2023-03-13T16:56:33.696Z,0.40
2023-03-13T16:59:13.662Z,0.43
2023-03-13T17:01:43.167Z,0.50
2023-03-13T17:04:12.758Z,0.40
2023-03-13T17:06:47.776Z,0.50
2023-03-13T17:09:20.168Z,0.40
2023-03-13T17:11:49.672Z,0.70
2023-03-13T17:14:19.100Z,0.80
2023-03-13T17:16:48.952Z,0.60
2023-03-13T17:19:18.926Z,0.30
2023-03-13T17:21:49.137Z,0.45
2023-03-13T17:24:18.629Z,0.70
2023-03-13T17:26:48.093Z,0.30
2023-03-13T17:29:20.293Z,0.40
2023-03-13T17:31:49.764Z,0.40
2023-03-13T17:34:20.052Z,2.33
2023-03-13T17:36:49.457Z,4.30
2023-03-13T17:39:18.896Z,4.50
2023-03-13T17:41:48.320Z,10.77
2023-03-13T17:44:17.764Z,10.70
2023-03-13T17:46:49.273Z,12.13
2023-03-13T17:49:20.593Z,8.10
2023-03-13T17:51:51.228Z,7.20
2023-03-13T17:54:21.732Z,6.23
2023-03-13T17:56:52.221Z,5.00
2023-03-13T17:59:21.854Z,3.67
2023-03-13T18:01:51.297Z,20.23
2023-03-13T18:04:20.723Z,14.10
2023-03-13T18:06:50.522Z,10.87
2023-03-13T18:09:22.769Z,7.10
2023-03-13T18:11:52.276Z,5.13
2023-03-13T18:14:23.065Z,3.30
2023-03-13T18:16:54.115Z,2.10
2023-03-13T18:19:26.517Z,1.97
2023-03-13T18:21:57.207Z,1.30
2023-03-13T18:24:26.731Z,1.10
2023-03-13T18:26:56.132Z,1.40
2023-03-13T18:29:27.378Z,1.27
2023-03-13T18:32:01.719Z,1.00
2023-03-13T18:34:31.677Z,1.10
2023-03-13T18:37:02.819Z,1.13
2023-03-13T18:39:33.854Z,0.80
2023-03-13T18:42:03.273Z,1.00
2023-03-13T18:44:32.699Z,1.00
2023-03-13T18:47:02.126Z,0.67
2023-03-13T18:49:31.547Z,0.70
2023-03-13T18:52:00.972Z,1.10
2023-03-13T18:54:31.088Z,0.87
2023-03-13T18:57:00.873Z,1.30
2023-03-13T18:59:30.375Z,0.87
2023-03-13T19:01:59.905Z,0.50
2023-03-13T19:04:29.483Z,0.73
2023-03-13T19:06:58.907Z,0.90
2023-03-13T19:09:45.438Z,0.90
2023-03-13T19:11:59.486Z,1.00
2023-03-13T19:14:28.917Z,0.80
2023-03-13T19:16:58.520Z,1.10
2023-03-13T19:19:28.733Z,1.10
2023-03-13T19:21:58.298Z,0.90
2023-03-13T19:24:27.731Z,1.10
2023-03-13T19:27:00.697Z,0.80
2023-03-13T19:29:32.667Z,0.70
2023-03-13T19:32:03.769Z,0.50
2023-03-13T19:34:33.162Z,0.50
2023-03-13T19:37:02.586Z,0.50
2023-03-13T19:39:32.025Z,0.30
2023-03-13T19:42:01.444Z,0.50
2023-03-13T19:44:30.875Z,0.40
2023-03-13T19:47:00.715Z,0.40
2023-03-13T19:49:31.181Z,0.47
2023-03-13T19:52:00.603Z,0.57
2023-03-13T19:54:30.035Z,0.53
2023-03-13T19:56:59.459Z,0.40
2023-03-13T19:59:30.687Z,0.57
2023-03-13T20:02:02.461Z,0.50
2023-03-13T20:04:32.092Z,0.87
2023-03-13T20:07:02.302Z,0.80
2023-03-13T20:09:31.716Z,0.80
2023-03-13T20:12:01.187Z,0.33
2023-03-13T20:14:30.637Z,0.67
2023-03-13T20:17:00.116Z,0.50
2023-03-13T20:19:29.762Z,0.63
2023-03-13T20:22:01.993Z,0.60
2023-03-13T20:24:36.301Z,0.50
2023-03-13T20:27:06.054Z,0.60
2023-03-13T20:29:35.487Z,0.50
2023-03-13T20:32:05.965Z,0.57
2023-03-13T20:34:35.902Z,0.47
2023-03-13T20:37:05.328Z,0.50
2023-03-13T20:39:36.700Z,0.50
2023-03-13T20:42:07.718Z,0.43
2023-03-13T20:44:37.315Z,0.37
2023-03-13T20:47:06.744Z,0.33
2023-03-13T20:49:36.377Z,0.40
2023-03-13T20:52:05.901Z,0.40
2023-03-13T20:54:35.756Z,0.40
2023-03-13T20:57:05.518Z,0.50
2023-03-13T20:59:35.190Z,0.50
2023-03-13T21:02:06.445Z,0.90
2023-03-13T21:04:35.949Z,1.10
2023-03-13T21:07:05.358Z,0.87
2023-03-13T21:09:35.903Z,0.70
2023-03-13T21:12:05.747Z,0.73
2023-03-13T21:14:36.384Z,0.60
2023-03-13T21:17:06.061Z,0.60
2023-03-13T21:19:35.492Z,0.63
2023-03-13T21:22:04.978Z,1.20
2023-03-13T21:24:34.414Z,0.70
2023-03-13T21:27:03.979Z,0.70
2023-03-13T21:29:33.478Z,0.50
2023-03-13T21:32:02.902Z,0.40
2023-03-13T21:34:32.343Z,0.50
2023-03-13T21:37:01.775Z,0.63
2023-03-13T21:39:31.240Z,0.40
2023-03-13T21:42:00.669Z,0.50
2023-03-13T21:44:30.101Z,0.60
2023-03-13T21:46:59.705Z,0.60
2023-03-13T21:49:29.252Z,0.47
2023-03-13T21:51:59.214Z,0.60
2023-03-13T21:54:28.983Z,0.60
2023-03-13T21:56:58.424Z,0.50
2023-03-13T21:59:29.501Z,0.50
2023-03-13T22:01:58.967Z,0.60
2023-03-13T22:04:29.045Z,0.40
2023-03-13T22:06:58.476Z,0.60
2023-03-13T22:09:27.916Z,0.40
2023-03-13T22:11:57.351Z,0.60
2023-03-13T22:14:27.987Z,0.50
2023-03-13T22:16:57.376Z,0.43
2023-03-13T22:19:26.809Z,0.63
2023-03-13T22:21:56.230Z,0.50
2023-03-13T22:24:25.672Z,0.43
2023-03-13T22:26:55.086Z,0.50
2023-03-13T22:29:24.525Z,0.77
2023-03-13T22:31:53.968Z,0.80
2023-03-13T22:34:23.407Z,0.60
2023-03-13T22:36:52.889Z,0.70
2023-03-13T22:39:22.386Z,0.50
2023-03-13T22:41:51.806Z,0.40
2023-03-13T22:44:21.752Z,0.33
2023-03-13T22:46:51.104Z,0.90
2023-03-13T22:49:20.539Z,0.40
2023-03-13T22:51:49.983Z,0.40
2023-03-13T22:54:19.405Z,0.40
2023-03-13T22:56:48.836Z,0.40
2023-03-13T22:59:18.287Z,0.20
2023-03-13T23:01:47.708Z,0.40
2023-03-13T23:04:17.402Z,0.30
2023-03-13T23:06:46.827Z,0.30
2023-03-13T23:09:16.252Z,0.40
2023-03-13T23:11:45.675Z,0.30
2023-03-13T23:14:15.103Z,0.20
2023-03-13T23:16:44.536Z,0.40
2023-03-13T23:19:14.331Z,0.50
2023-03-13T23:21:43.830Z,0.40
2023-03-13T23:24:13.321Z,0.30
2023-03-13T23:26:42.751Z,0.40
2023-03-13T23:29:12.202Z,0.40
2023-03-13T23:31:41.626Z,0.30
2023-03-13T23:34:11.086Z,0.40
2023-03-13T23:36:40.521Z,0.30
2023-03-13T23:39:10.472Z,0.20
2023-03-13T23:41:39.895Z,0.20
2023-03-13T23:44:09.322Z,0.10
2023-03-13T23:46:38.747Z,0.20
2023-03-13T23:49:08.172Z,0.30
2023-03-13T23:51:37.778Z,0.50
2023-03-13T23:54:07.579Z,0.10
2023-03-13T23:56:37.007Z,0.27
2023-03-13T23:59:06.437Z,0.10
